Time;durP1;ratioP1;P1;durP2;ratioP2;P2;SDS_P1;SDS_P2;PMS_P1;PMS_P2;Temp;Humidity;BMP_temperature;BMP_pressure;BME280_temperature;BME280_humidity;BME280_pressure;Samples;Min_cycle;Max_cycle;Signal;HPM_P1;HPM_P2
2021/03/26 00:00:34;;;;;;;5.63;3.65;;;;;;;6.79;71.83;98769.28;4980479;28;45302;-84
2021/03/26 00:02:59;;;;;;;7.43;3.78;;;;;;;6.78;72.15;98762.31;4977342;28;45402;-84
2021/03/26 00:05:25;;;;;;;7.15;3.95;;;;;;;6.92;71.29;98777.94;4980639;28;45245;-84
2021/03/26 00:07:51;;;;;;;9.95;4.20;;;;;;;6.77;71.96;98768.56;4980276;28;45222;-83
2021/03/26 00:10:16;;;;;;;8.50;3.85;;;;;;;6.81;72.08;98762.09;4980454;28;46126;-84
2021/03/26 00:12:43;;;;;;;8.55;4.28;;;;;;;6.88;71.05;98770.38;4978724;28;45241;-83
2021/03/26 00:15:09;;;;;;;9.48;4.20;;;;;;;6.88;70.66;98767.72;4980503;28;45315;-84
2021/03/26 00:17:34;;;;;;;6.97;3.85;;;;;;;6.85;71.09;98764.34;4979045;28;45575;-83
2021/03/26 00:20:00;;;;;;;6.85;3.80;;;;;;;6.80;71.84;98770.97;4978942;28;47014;-84
2021/03/26 00:22:27;;;;;;;6.78;3.85;;;;;;;6.75;71.53;98771.31;4980343;28;45358;-83
2021/03/26 00:24:52;;;;;;;8.35;4.00;;;;;;;6.83;70.54;98765.47;4967733;28;45512;-84
2021/03/26 00:27:18;;;;;;;7.13;3.65;;;;;;;6.77;70.82;98758.81;4980277;28;45276;-84
2021/03/26 00:29:44;;;;;;;7.05;3.97;;;;;;;6.71;71.51;98765.44;4980161;28;45345;-84
2021/03/26 00:32:10;;;;;;;6.85;4.45;;;;;;;6.69;71.60;98754.16;4971388;28;45256;-83
2021/03/26 00:34:35;;;;;;;6.55;3.97;;;;;;;6.67;72.31;98768.44;4979145;28;45241;-84
2021/03/26 00:37:00;;;;;;;8.15;4.03;;;;;;;6.71;72.93;98769.88;5011751;28;45322;-83
2021/03/26 00:39:26;;;;;;;6.40;3.90;;;;;;;6.69;73.45;98775.31;4979578;28;46366;-84
2021/03/26 00:41:52;;;;;;;7.65;4.60;;;;;;;6.66;72.18;98777.31;5009974;28;45745;-84
2021/03/26 00:44:17;;;;;;;7.00;4.55;;;;;;;6.51;73.95;98766.13;4980275;28;45271;-84
2021/03/26 00:46:43;;;;;;;7.88;4.43;;;;;;;6.32;74.48;98766.69;4979972;28;45366;-83
2021/03/26 00:49:09;;;;;;;7.03;4.30;;;;;;;6.27;73.99;98762.59;4979914;28;45327;-84
2021/03/26 00:51:36;;;;;;;6.95;4.20;;;;;;;6.28;73.39;98771.34;4979315;28;45331;-84
2021/03/26 00:54:02;;;;;;;8.65;4.20;;;;;;;6.42;73.01;98770.31;4978542;28;45303;-84
2021/03/26 00:56:27;;;;;;;10.15;4.75;;;;;;;6.24;74.39;98764.63;4969766;28;45533;-84
2021/03/26 00:58:53;;;;;;;9.10;4.00;;;;;;;6.09;74.62;98772.75;4979698;28;45972;-83
2021/03/26 01:01:18;;;;;;;6.43;4.05;;;;;;;6.15;73.80;98767.97;4978123;28;45404;-84
2021/03/26 01:03:44;;;;;;;6.93;4.18;;;;;;;6.18;74.11;98765.91;4979605;28;45255;-84
2021/03/26 01:06:10;;;;;;;8.90;4.60;;;;;;;6.24;73.92;98772.53;4979742;28;45484;-83
2021/03/26 01:08:36;;;;;;;9.10;4.55;;;;;;;6.15;74.71;98763.50;4979280;28;45940;-84
2021/03/26 01:11:18;;;;;;;9.25;4.20;;;;;;;6.13;74.02;98765.41;4978751;28;45245;-84
2021/03/26 01:13:45;;;;;;;9.00;4.07;;;;;;;6.22;73.39;98772.69;4979753;28;45377;-83
2021/03/26 01:16:13;;;;;;;8.55;4.15;;;;;;;6.24;73.04;98772.53;4979518;28;45241;-84
2021/03/26 01:18:43;;;;;;;7.95;4.63;;;;;;;6.19;73.25;98769.41;4979473;28;46274;-83
2021/03/26 01:21:13;;;;;;;7.80;4.80;;;;;;;6.17;74.10;98764.22;4979464;28;45305;-84
2021/03/26 01:23:40;;;;;;;8.43;4.80;;;;;;;6.18;74.48;98763.28;4979454;28;45385;-84
2021/03/26 01:26:05;;;;;;;10.30;4.60;;;;;;;6.11;75.10;98757.63;4979358;28;45338;-84
2021/03/26 01:28:31;;;;;;;10.85;4.50;;;;;;;6.10;74.93;98758.59;4979409;28;45363;-84
2021/03/26 01:30:58;;;;;;;5.93;4.07;;;;;;;6.16;74.49;98759.91;4966859;28;45433;-84
2021/03/26 01:33:24;;;;;;;8.18;4.13;;;;;;;5.97;75.86;98757.78;4979331;28;45425;-84
2021/03/26 01:35:50;;;;;;;7.20;4.22;;;;;;;5.80;76.52;98756.38;4979197;28;45283;-84
2021/03/26 01:38:16;;;;;;;7.45;4.53;;;;;;;5.90;75.80;98748.66;4978935;28;46593;-84
2021/03/26 01:40:47;;;;;;;10.20;4.57;;;;;;;5.88;75.95;98754.03;4978861;28;45419;-84
2021/03/26 01:43:18;;;;;;;;;;;;;;;5.81;76.89;98745.72;4979807;28;45299;-85
2021/03/26 01:45:44;;;;;;;8.00;5.00;;;;;;;5.84;75.74;98737.59;4979160;28;45411;-85
2021/03/26 01:48:13;;;;;;;7.15;4.40;;;;;;;5.87;75.50;98746.22;4978762;28;45334;-84
2021/03/26 01:50:39;;;;;;;8.40;4.30;;;;;;;5.84;75.89;98747.28;5010571;28;45259;-84
2021/03/26 01:53:06;;;;;;;7.72;4.10;;;;;;;5.83;75.75;98730.63;4978683;28;45388;-84
2021/03/26 01:55:40;;;;;;;6.38;3.92;;;;;;;5.77;76.25;98735.50;4961844;28;45237;-84
2021/03/26 01:58:07;;;;;;;9.00;4.32;;;;;;;5.82;76.26;98730.72;4974548;28;46369;-84
2021/03/26 02:00:38;;;;;;;11.60;4.47;;;;;;;5.72;76.67;98720.00;4976807;28;45465;-84
2021/03/26 02:03:14;;;;;;;10.00;4.35;;;;;;;5.79;76.14;98720.41;4977864;28;45619;-84
2021/03/26 02:05:40;;;;;;;7.57;3.90;;;;;;;5.84;75.62;98707.69;4966984;28;45546;-83
2021/03/26 02:08:06;;;;;;;9.55;4.55;;;;;;;5.99;75.47;98711.00;4978406;28;45613;-84
2021/03/26 02:10:32;;;;;;;7.68;4.80;;;;;;;5.93;75.92;98711.47;4979042;28;45283;-84
2021/03/26 02:13:06;;;;;;;8.25;4.47;;;;;;;5.90;76.71;98715.16;4978832;28;45354;-84
2021/03/26 02:15:45;;;;;;;8.32;4.45;;;;;;;5.83;77.76;98708.66;4978935;28;45596;-84
2021/03/26 02:18:19;;;;;;;7.65;4.22;;;;;;;5.82;77.71;98707.81;4978399;28;45544;-84
2021/03/26 02:20:49;;;;;;;10.10;4.40;;;;;;;5.88;77.13;98703.88;4978749;28;45346;-85
2021/03/26 02:23:22;;;;;;;7.88;4.00;;;;;;;5.95;76.02;98698.97;4978415;28;45215;-84
2021/03/26 02:25:48;;;;;;;9.20;4.68;;;;;;;6.10;75.30;98697.00;4977332;28;45549;-84
2021/03/26 02:28:14;;;;;;;7.97;3.67;;;;;;;6.25;74.03;98697.63;4977162;28;46986;-84
2021/03/26 02:30:45;;;;;;;8.10;4.38;;;;;;;6.25;74.44;98697.63;4966239;28;45275;-84
2021/03/26 02:33:11;;;;;;;6.10;4.25;;;;;;;6.11;75.77;98706.59;4978571;28;45351;-84
2021/03/26 02:35:43;;;;;;;7.25;4.07;;;;;;;5.88;76.34;98700.41;5010082;28;45449;-84
2021/03/26 02:38:11;;;;;;;7.35;4.18;;;;;;;5.90;75.77;98701.13;4978191;28;46595;-84
2021/03/26 02:41:02;;;;;;;7.30;4.45;;;;;;;5.60;77.32;98703.28;4978051;28;45509;-85
2021/03/26 02:43:37;;;;;;;8.73;4.60;;;;;;;5.53;77.82;98694.16;4980451;28;45352;-85
2021/03/26 02:46:20;;;;;;;11.45;5.03;;;;;;;5.43;78.33;98688.69;5010028;28;45656;-85
2021/03/26 02:48:57;;;;;;;9.45;4.28;;;;;;;5.52;76.78;98690.66;4978038;28;45291;-85
2021/03/26 02:51:30;;;;;;;8.00;4.60;;;;;;;5.57;77.40;98692.97;5009809;28;46155;-84
2021/03/26 02:54:02;;;;;;;8.80;4.78;;;;;;;5.63;77.62;98700.41;4977932;28;45281;-85
2021/03/26 02:56:40;;;;;;;7.43;4.32;;;;;;;5.36;79.28;98700.66;4968211;28;45196;-85
2021/03/26 02:59:15;;;;;;;6.40;4.05;;;;;;;5.61;77.31;98702.34;4962809;28;45512;-84
2021/03/26 03:01:45;;;;;;;7.97;4.28;;;;;;;5.83;76.41;98703.38;4972084;28;45822;-84
2021/03/26 03:04:25;;;;;;;6.97;4.07;;;;;;;5.93;75.22;98704.34;5009727;28;45360;-84
2021/03/26 03:07:03;;;;;;;6.88;4.25;;;;;;;5.91;74.73;98711.56;4978159;28;45192;-84
2021/03/26 03:09:33;;;;;;;8.55;4.43;;;;;;;5.90;74.80;98706.41;4977708;28;46154;-84
2021/03/26 03:12:05;;;;;;;9.85;4.32;;;;;;;5.66;76.49;98717.81;4965236;28;45249;-84
2021/03/26 03:14:40;;;;;;;9.73;5.03;;;;;;;5.43;77.29;98712.44;5011677;28;45405;-84
2021/03/26 03:17:17;;;;;;;8.82;4.50;;;;;;;5.33;78.29;98722.81;4981355;28;45364;-84
2021/03/26 03:19:56;;;;;;;10.43;5.03;;;;;;;5.38;78.31;98725.13;4974736;28;46170;-85
2021/03/26 03:22:51;;;;;;;8.10;4.70;;;;;;;5.21;78.08;98721.03;4981173;28;45232;-84
2021/03/26 03:25:20;;;;;;;9.05;5.10;;;;;;;5.38;78.16;98725.13;4971384;28;45276;-85
2021/03/26 03:27:58;;;;;;;9.88;4.38;;;;;;;5.39;77.50;98721.53;4979412;28;45520;-84
2021/03/26 03:30:34;;;;;;;9.68;4.43;;;;;;;5.21;77.47;98726.31;4981240;28;46428;-84
2021/03/26 03:33:22;;;;;;;7.47;4.38;;;;;;;5.13;78.61;98729.53;4999625;28;45291;-85
2021/03/26 03:36:09;;;;;;;8.27;4.28;;;;;;;5.00;79.73;98720.81;4981244;28;45364;-84
2021/03/26 03:38:53;;;;;;;8.82;4.13;;;;;;;5.05;79.78;98716.88;4979452;28;45457;-83
2021/03/26 03:41:32;;;;;;;12.30;5.10;;;;;;;5.00;79.76;98715.53;4969408;28;45433;-83
2021/03/26 03:44:04;;;;;;;7.50;4.47;;;;;;;5.10;78.31;98713.94;4976415;28;45479;-83
2021/03/26 03:46:48;;;;;;;7.55;4.40;;;;;;;5.12;78.24;98719.94;5012758;28;45393;-83
2021/03/26 03:49:30;;;;;;;7.25;4.25;;;;;;;5.19;78.32;98715.91;4979635;28;45527;-82
2021/03/26 03:52:04;;;;;;;9.43;4.40;;;;;;;5.18;78.46;98716.00;4979177;28;47379;-82
2021/03/26 03:54:45;;;;;;;8.75;4.38;;;;;;;5.14;78.73;98715.38;4980780;28;45254;-83
2021/03/26 03:57:15;;;;;;;8.63;4.40;;;;;;;5.22;78.78;98714.81;4973786;28;45436;-83
2021/03/26 03:59:43;;;;;;;7.97;4.40;;;;;;;5.13;78.59;98712.84;4979630;28;45270;-83
2021/03/26 04:02:19;;;;;;;7.90;4.88;;;;;;;5.14;78.09;98717.16;5012140;28;48174;-84
2021/03/26 04:05:15;;;;;;;8.10;5.13;;;;;;;5.24;78.46;98720.81;4980811;28;45296;-83
2021/03/26 04:08:00;;;;;;;9.27;4.60;;;;;;;5.21;79.14;98714.00;4980561;28;45439;-82
2021/03/26 04:10:26;;;;;;;8.18;4.53;;;;;;;5.13;79.49;98715.47;4967983;28;45355;-82
2021/03/26 04:12:57;;;;;;;9.40;4.50;;;;;;;5.14;79.59;98715.38;4980487;28;45358;-82
2021/03/26 04:15:29;;;;;;;;;;;;;;;5.10;79.87;98724.47;4981288;28;45559;-82
2021/03/26 04:18:24;;;;;;;10.35;4.60;;;;;;;5.20;78.69;98717.59;4980572;28;45304;-81
2021/03/26 04:21:05;;;;;;;7.82;4.88;;;;;;;5.19;78.31;98728.22;4987275;28;45277;-83
2021/03/26 04:23:52;;;;;;;10.63;4.90;;;;;;;5.12;79.27;98722.56;4968675;28;46412;-83
2021/03/26 04:26:34;;;;;;;7.75;4.75;;;;;;;4.99;80.54;98719.13;4978749;28;45342;-83
2021/03/26 04:29:20;;;;;;;8.32;4.97;;;;;;;5.09;79.70;98718.34;4968752;28;45496;-84
2021/03/26 04:31:54;;;;;;;6.20;4.03;;;;;;;5.03;80.26;98715.31;4980183;28;45350;-83
2021/03/26 04:34:20;;;;;;;8.80;4.18;;;;;;;4.90;80.33;98712.69;4980342;28;45315;-83
2021/03/26 04:37:12;;;;;;;8.60;4.60;;;;;;;4.89;80.08;98705.75;4980008;28;45357;-83
2021/03/26 04:40:13;;;;;;;8.43;4.65;;;;;;;4.81;80.67;98715.03;4982592;28;45537;-82
2021/03/26 04:42:50;;;;;;;11.45;4.72;;;;;;;4.94;79.21;98703.63;4989435;28;45551;-83
2021/03/26 04:45:25;;;;;;;9.85;5.18;;;;;;;4.97;79.98;98713.94;4980081;28;46622;-83
2021/03/26 04:48:02;;;;;;;8.32;4.80;;;;;;;4.96;79.83;98709.63;5007621;28;45758;-83
2021/03/26 04:50:36;;;;;;;7.72;4.82;;;;;;;4.87;80.49;98710.28;4967420;28;45388;-84
2021/03/26 04:53:46;;;;;;;7.82;4.20;;;;;;;4.82;80.52;98715.88;4976964;28;45329;-83
2021/03/26 04:56:16;;;;;;;6.72;4.50;;;;;;;4.94;79.30;98709.75;4978109;28;45291;-83
2021/03/26 04:58:50;;;;;;;7.53;4.50;;;;;;;4.73;80.87;98711.25;4979592;28;45285;-83
2021/03/26 05:01:18;;;;;;;7.95;4.50;;;;;;;4.76;80.88;98713.66;4980233;28;45581;-83
2021/03/26 05:03:54;;;;;;;11.27;4.90;;;;;;;4.79;80.33;98716.94;4979527;28;45328;-83
2021/03/26 05:06:27;;;;;;;9.02;4.90;;;;;;;4.84;80.51;98715.78;4979719;28;45437;-83
2021/03/26 05:08:57;;;;;;;12.13;5.60;;;;;;;4.61;81.19;98713.78;4979299;28;45898;-83
2021/03/26 05:11:26;;;;;;;6.47;4.57;;;;;;;4.86;80.43;98709.47;4980069;28;45497;-83
2021/03/26 05:13:58;;;;;;;9.50;4.43;;;;;;;4.78;80.99;98717.03;4979406;28;45161;-84
2021/03/26 05:16:32;;;;;;;9.35;4.75;;;;;;;4.97;79.98;98721.84;4979627;28;45348;-83
2021/03/26 05:19:06;;;;;;;7.40;4.30;;;;;;;4.94;79.77;98715.03;4979656;28;45355;-83
2021/03/26 05:21:43;;;;;;;8.70;4.97;;;;;;;4.59;82.08;98725.41;4979200;28;45314;-83
2021/03/26 05:24:35;;;;;;;8.40;4.32;;;;;;;4.66;81.44;98722.22;4979465;28;45356;-84
2021/03/26 05:27:04;;;;;;;8.38;4.75;;;;;;;4.76;81.08;98727.69;4966338;28;45505;-83
2021/03/26 05:29:30;;;;;;;8.77;4.68;;;;;;;4.79;80.47;98726.63;4979410;28;45293;-83
2021/03/26 05:32:13;;;;;;;6.90;4.85;;;;;;;4.72;80.61;98723.59;4979321;28;45272;-83
2021/03/26 05:34:48;;;;;;;9.77;5.65;;;;;;;4.64;81.13;98723.28;4979690;28;45210;-83
2021/03/26 05:37:36;;;;;;;10.88;5.60;;;;;;;4.73;80.78;98724.41;4964588;28;45542;-83
2021/03/26 05:40:31;;;;;;;9.45;4.97;;;;;;;4.73;80.56;98732.31;4977580;28;45946;-83
2021/03/26 05:43:26;;;;;;;10.48;5.40;;;;;;;4.80;80.49;98725.66;4979296;28;45207;-83
2021/03/26 05:46:29;;;;;;;9.20;4.60;;;;;;;4.73;81.02;98729.69;4979365;28;45303;-83
2021/03/26 05:49:00;;;;;;;9.70;4.50;;;;;;;4.70;80.74;98724.63;4978920;28;46668;-83
2021/03/26 05:51:35;;;;;;;;;;;;;;;4.76;81.17;98734.75;4979351;28;45434;-83
2021/03/26 05:54:14;;;;;;;7.63;4.05;;;;;;;4.82;80.92;98736.94;4977578;28;45339;-83
2021/03/26 05:56:57;;;;;;;9.40;4.35;;;;;;;4.91;80.35;98735.47;4978037;28;45586;-83
2021/03/26 05:59:41;;;;;;;8.57;4.47;;;;;;;5.02;80.15;98729.44;4978685;28;45208;-83
2021/03/26 06:02:18;;;;;;;7.07;4.18;;;;;;;5.09;79.40;98734.16;5006159;28;45473;-88
2021/03/26 06:05:11;;;;;;;8.40;4.50;;;;;;;5.15;79.25;98734.69;4973304;28;45219;-92
2021/03/26 06:07:37;;;;;;;7.68;4.05;;;;;;;5.15;79.64;98739.94;4973379;28;45580;-88
2021/03/26 06:10:21;;;;;;;6.97;4.22;;;;;;;5.13;80.77;98747.97;4978739;28;46181;-91
2021/03/26 06:13:17;;;;;;;8.73;4.53;;;;;;;5.06;80.37;98742.28;4978235;28;45527;-86
2021/03/26 06:16:16;;;;;;;7.32;4.03;;;;;;;5.09;80.19;98743.88;4971355;28;46118;-79
2021/03/26 06:19:08;;;;;;;7.55;4.15;;;;;;;5.15;79.71;98745.22;4977110;28;45566;-80
2021/03/26 06:22:02;;;;;;;7.50;4.38;;;;;;;5.09;79.97;98744.69;4980917;28;46428;-81
2021/03/26 06:24:45;;;;;;;9.40;5.25;;;;;;;5.16;79.97;98746.91;4978809;28;45421;-81
2021/03/26 06:27:22;;;;;;;6.38;3.58;;;;;;;5.16;80.71;98742.50;4977059;28;45462;-81
2021/03/26 06:30:06;;;;;;;7.13;4.20;;;;;;;5.25;80.11;98738.34;4976394;28;45415;-79
2021/03/26 06:32:58;;;;;;;8.40;4.57;;;;;;;5.31;80.63;98737.06;4976510;28;45394;-80
2021/03/26 06:35:42;;;;;;;8.45;4.20;;;;;;;5.51;80.67;98748.81;4975868;28;45510;-85
2021/03/26 06:38:31;;;;;;;8.05;4.40;;;;;;;5.63;80.67;98754.97;4976300;28;45465;-86
2021/03/26 06:41:12;;;;;;;7.68;4.47;;;;;;;5.84;79.38;98742.00;4982088;28;45420;-81
2021/03/26 06:44:14;;;;;;;6.95;4.18;;;;;;;5.90;80.31;98746.00;4977219;28;46278;-82
2021/03/26 06:47:04;;;;;;;6.85;4.35;;;;;;;5.90;80.88;98751.28;4976958;28;45489;-84
2021/03/26 06:49:47;;;;;;;8.68;4.53;;;;;;;6.05;80.13;98747.53;5001504;28;45521;-86
2021/03/26 06:52:16;;;;;;;6.97;4.07;;;;;;;6.02;79.56;98744.25;4971849;28;45478;-85
2021/03/26 06:55:18;;;;;;;6.88;4.25;;;;;;;5.98;80.12;98746.28;4970912;28;45877;-84
2021/03/26 06:57:58;;;;;;;6.30;3.70;;;;;;;6.13;79.20;98747.78;4975701;28;45389;-83
2021/03/26 07:01:05;;;;;;;6.15;4.15;;;;;;;6.15;79.59;98745.00;4977087;28;45366;-83
2021/03/26 07:03:58;;;;;;;6.18;3.90;;;;;;;6.11;78.44;98747.06;4984362;28;45680;-81
2021/03/26 07:06:48;;;;;;;6.20;3.83;;;;;;;6.19;79.62;98745.63;4981901;28;45457;-83
2021/03/26 07:09:41;;;;;;;7.80;4.40;;;;;;;6.38;78.80;98750.38;4975775;28;45515;-82
2021/03/26 07:12:31;;;;;;;5.95;3.88;;;;;;;6.49;77.37;98752.19;4975910;28;45726;-82
2021/03/26 07:15:17;;;;;;;8.33;3.90;;;;;;;6.49;78.21;98757.47;4975663;28;45603;-82
2021/03/26 07:18:30;;;;;;;8.70;4.10;;;;;;;6.50;78.08;98754.72;4976114;28;46501;-82
2021/03/26 07:21:26;;;;;;;9.48;4.38;;;;;;;6.64;76.64;98751.03;5000641;28;45544;-82
2021/03/26 07:24:22;;;;;;;10.82;4.35;;;;;;;6.65;78.22;98752.72;4976674;28;45640;-81
2021/03/26 07:27:13;;;;;;;8.90;4.85;;;;;;;6.67;78.58;98747.28;4973151;28;45344;-81
2021/03/26 07:30:16;;;;;;;13.25;6.28;;;;;;;6.92;77.06;98753.31;4974378;28;46384;-81
2021/03/26 07:32:57;;;;;;;19.05;7.72;;;;;;;7.41;75.38;98753.84;4974314;28;45546;-82
2021/03/26 07:35:42;;;;;;;10.02;6.10;;;;;;;7.64;74.63;98754.66;4968741;28;45711;-87
2021/03/26 07:38:56;;;;;;;12.45;6.25;;;;;;;7.88;74.36;98750.94;4980557;28;45422;-85
2021/03/26 07:41:29;;;;;;;15.57;7.43;;;;;;;8.23;72.46;98738.38;4963314;28;45655;-85
2021/03/26 07:44:26;;;;;;;14.98;7.38;;;;;;;8.51;70.81;98734.28;4972230;28;45469;-81
2021/03/26 07:47:19;;;;;;;15.90;7.07;;;;;;;8.47;70.99;98736.34;4976383;28;45573;-84
2021/03/26 07:50:06;;;;;;;11.30;7.07;;;;;;;8.42;70.15;98729.72;4976369;28;45307;-82
2021/03/26 07:52:46;;;;;;;24.80;9.95;;;;;;;8.27;71.01;98737.16;4972214;28;45441;-83
2021/03/26 07:55:30;;;;;;;18.70;10.13;;;;;;;8.30;73.00;98745.69;4973885;28;45462;-83
2021/03/26 07:58:04;;;;;;;14.90;7.78;;;;;;;8.21;74.75;98735.88;4975020;28;45815;-83
2021/03/26 08:01:06;;;;;;;12.85;7.30;;;;;;;7.89;75.72;98729.66;4977354;28;45235;-83
2021/03/26 08:03:50;;;;;;;7.93;4.00;;;;;;;7.93;74.53;98737.34;4977431;28;46180;-83
2021/03/26 08:06:48;;;;;;;8.25;3.85;;;;;;;8.04;75.72;98729.34;4973410;28;45395;-83
2021/03/26 08:09:32;;;;;;;7.88;4.55;;;;;;;8.15;75.15;98731.91;4976887;28;45444;-83
2021/03/26 08:11:59;;;;;;;14.38;5.30;;;;;;;8.42;74.76;98727.94;4979983;28;45519;-83
2021/03/26 08:14:37;;;;;;;11.40;7.20;;;;;;;8.43;72.43;98724.31;4979594;28;45497;-82
2021/03/26 08:17:27;;;;;;;17.15;8.68;;;;;;;8.74;70.55;98732.31;5011253;28;45326;-83
2021/03/26 08:20:07;;;;;;;13.85;7.90;;;;;;;9.03;71.20;98736.06;4979893;28;45391;-83
2021/03/26 08:22:54;;;;;;;9.98;6.40;;;;;;;9.24;71.33;98725.34;4974263;28;45366;-83
2021/03/26 08:25:19;;;;;;;12.50;7.00;;;;;;;10.14;68.56;98722.63;4979488;28;45492;-83
2021/03/26 08:28:00;;;;;;;14.60;7.22;;;;;;;10.20;67.52;98723.88;4979601;28;45405;-83
2021/03/26 08:30:53;;;;;;;15.02;6.55;;;;;;;10.23;66.32;98720.94;4979860;28;45279;-83
2021/03/26 08:33:48;;;;;;;10.93;5.90;;;;;;;10.47;65.21;98709.03;4979532;28;45223;-82
2021/03/26 08:36:55;;;;;;;10.18;6.25;;;;;;;11.66;59.13;98715.47;4972428;28;45447;-83
2021/03/26 08:39:39;;;;;;;16.27;7.40;;;;;;;12.34;60.71;98711.38;4977276;28;45552;-83
2021/03/26 08:42:14;;;;;;;9.65;6.00;;;;;;;12.57;59.67;98718.88;4990746;28;45351;-83
2021/03/26 08:44:41;;;;;;;9.43;5.68;;;;;;;13.06;55.43;98723.63;4979641;28;45366;-83
2021/03/26 08:47:18;;;;;;;10.68;6.05;;;;;;;12.94;56.01;98719.56;4979165;28;46807;-83
2021/03/26 08:49:51;;;;;;;9.27;6.30;;;;;;;14.46;48.37;98716.81;4979408;28;45461;-82
2021/03/26 08:52:25;;;;;;;11.32;6.15;;;;;;;17.15;50.09;98713.69;4979227;28;45218;-83
2021/03/26 08:55:17;;;;;;;9.93;5.80;;;;;;;19.37;42.05;98712.84;4977719;28;45482;-82
2021/03/26 08:57:57;;;;;;;9.75;5.65;;;;;;;20.71;38.32;98709.47;4975372;28;45386;-82
2021/03/26 09:00:53;;;;;;;12.75;6.00;;;;;;;22.30;35.43;98703.72;4979339;28;45223;-82
2021/03/26 09:03:21;;;;;;;7.88;5.15;;;;;;;21.94;35.34;98697.97;4974819;28;45606;-82
2021/03/26 09:06:00;;;;;;;7.43;4.70;;;;;;;22.65;33.51;98692.41;4979088;28;45362;-83
2021/03/26 09:08:40;;;;;;;11.90;5.50;;;;;;;21.36;34.44;98691.63;4978870;28;45647;-82
2021/03/26 09:11:39;;;;;;;8.63;4.57;;;;;;;21.29;35.01;98691.66;4978542;28;45417;-82
2021/03/26 09:14:36;;;;;;;6.57;3.97;;;;;;;21.42;32.06;98692.63;4979027;28;45251;-82
2021/03/26 09:17:30;;;;;;;5.80;3.95;;;;;;;21.44;33.40;98677.00;4978958;28;45401;-82
2021/03/26 09:20:13;;;;;;;7.07;4.30;;;;;;;22.45;31.01;98674.44;4978893;28;46034;-83
2021/03/26 09:23:10;;;;;;;5.65;3.90;;;;;;;22.43;31.78;98673.81;4989408;28;45484;-83
2021/03/26 09:25:53;;;;;;;6.57;4.28;;;;;;;21.98;33.18;98674.00;4978658;28;45295;-81
2021/03/26 09:28:33;;;;;;;7.55;3.85;;;;;;;21.63;32.94;98675.28;4979016;28;45241;-82
2021/03/26 09:31:24;;;;;;;5.97;3.75;;;;;;;20.78;32.98;98660.00;4978721;28;46407;-84
2021/03/26 09:34:06;;;;;;;6.43;3.45;;;;;;;19.96;32.56;98659.25;4976868;28;45438;-83
2021/03/26 09:36:40;;;;;;;7.20;3.95;;;;;;;19.57;33.34;98660.88;5008712;28;45478;-83
2021/03/26 09:39:11;;;;;;;5.15;4.00;;;;;;;19.52;35.91;98661.47;4978439;28;45374;-84
2021/03/26 09:41:52;;;;;;;;;;;;;;;18.82;38.27;98653.50;4971968;28;45367;-87
2021/03/26 09:44:40;;;;;;;9.05;4.18;;;;;;;17.57;38.14;98660.19;4977212;28;45522;-85
2021/03/26 09:47:13;;;;;;;7.18;3.75;;;;;;;16.93;38.64;98656.38;4969335;28;45694;-88
2021/03/26 09:49:43;;;;;;;6.03;3.53;;;;;;;17.63;40.37;98651.38;4978621;28;45636;-86
2021/03/26 09:52:19;;;;;;;6.27;3.70;;;;;;;17.87;39.72;98635.88;4978116;28;46158;-86
2021/03/26 09:54:48;;;;;;;6.70;3.70;;;;;;;18.32;41.69;98638.31;4978424;28;45523;-84
2021/03/26 09:57:47;;;;;;;7.25;3.15;;;;;;;18.38;36.80;98636.69;4977974;28;45233;-82
2021/03/26 10:00:50;;;;;;;5.68;3.63;;;;;;;18.75;35.83;98633.78;4968343;28;45303;-81
2021/03/26 10:03:33;;;;;;;7.32;3.17;;;;;;;18.74;37.24;98634.81;4978268;28;45355;-82
2021/03/26 10:06:34;;;;;;;7.18;3.65;;;;;;;18.81;34.22;98627.59;4980328;28;45299;-82
2021/03/26 10:09:21;;;;;;;7.00;3.72;;;;;;;19.33;35.10;98628.00;4980568;28;45622;-81
2021/03/26 10:11:56;;;;;;;6.30;2.97;;;;;;;19.43;31.10;98627.63;4978131;28;45510;-82
2021/03/26 10:14:29;;;;;;;5.15;3.05;;;;;;;19.42;28.61;98623.28;4977942;28;46094;-81
2021/03/26 10:17:03;;;;;;;6.68;3.17;;;;;;;18.55;30.46;98621.06;4977855;28;45358;-81
2021/03/26 10:19:44;;;;;;;5.50;3.25;;;;;;;18.76;30.47;98611.22;4967347;28;45481;-82
2021/03/26 10:23:06;;;;;;;6.55;3.10;;;;;;;18.71;30.53;98616.38;4977880;28;45355;-81
2021/03/26 10:25:42;;;;;;;5.85;3.00;;;;;;;18.62;31.72;98604.94;4976337;28;45481;-82
2021/03/26 10:28:22;;;;;;;7.47;3.60;;;;;;;18.52;32.47;98600.72;4970415;28;45319;-82
2021/03/26 10:30:53;;;;;;;7.03;3.60;;;;;;;18.34;31.11;98603.13;4976436;28;45512;-82
2021/03/26 10:33:20;;;;;;;5.80;3.72;;;;;;;18.04;32.25;98603.34;4976404;28;45514;-81
2021/03/26 10:35:59;;;;;;;5.93;3.25;;;;;;;17.63;32.76;98591.41;4977741;28;46044;-81
2021/03/26 10:38:55;;;;;;;5.60;3.13;;;;;;;17.82;34.77;98581.00;4977519;28;45271;-81
2021/03/26 10:41:50;;;;;;;6.55;3.03;;;;;;;18.48;33.21;98585.19;4978041;28;45541;-83
2021/03/26 10:44:31;;;;;;;5.65;3.20;;;;;;;17.98;34.37;98571.81;4977553;28;45487;-85
2021/03/26 10:47:49;;;;;;;8.30;3.70;;;;;;;18.03;35.56;98569.38;4975907;28;46160;-83
2021/03/26 10:50:27;;;;;;;5.78;3.28;;;;;;;18.13;36.10;98561.78;4964340;28;45654;-84
2021/03/26 10:53:03;;;;;;;5.47;3.08;;;;;;;18.09;35.94;98564.03;4977206;28;45413;-84
2021/03/26 10:55:41;;;;;;;7.35;2.90;;;;;;;18.05;35.44;98549.31;4977500;28;45442;-85
2021/03/26 10:58:17;;;;;;;7.82;2.65;;;;;;;18.16;33.95;98555.19;4977027;28;46572;-84
2021/03/26 11:00:48;;;;;;;5.43;2.97;;;;;;;18.18;35.99;98550.44;4976207;28;45609;-85
2021/03/26 11:03:22;;;;;;;4.18;2.67;;;;;;;18.20;36.39;98548.41;4975404;28;45444;-85
2021/03/26 11:05:53;;;;;;;4.47;2.63;;;;;;;18.28;34.90;98544.69;4975228;28;45420;-84
2021/03/26 11:08:48;;;;;;;5.63;2.50;;;;;;;18.25;35.27;98535.16;4976511;28;45434;-84
2021/03/26 11:11:24;;;;;;;4.95;2.83;;;;;;;18.37;33.29;98535.41;4967273;28;45483;-83
2021/03/26 11:14:19;;;;;;;4.93;2.65;;;;;;;18.10;34.29;98529.91;4975925;28;45398;-83
2021/03/26 11:17:00;;;;;;;4.93;2.58;;;;;;;18.31;36.73;98529.00;4975370;28;45417;-82
2021/03/26 11:19:33;;;;;;;7.13;2.70;;;;;;;18.32;33.47;98517.19;4967144;28;46589;-83
2021/03/26 11:22:16;;;;;;;6.38;2.90;;;;;;;18.40;34.86;98501.91;4974833;28;45549;-83
2021/03/26 11:24:56;;;;;;;4.25;2.15;;;;;;;18.50;34.83;98499.66;4976608;28;45355;-82
2021/03/26 11:27:27;;;;;;;4.70;2.40;;;;;;;18.51;35.29;98504.00;4976631;28;45378;-81
2021/03/26 11:30:21;;;;;;;8.60;3.10;;;;;;;18.34;33.72;98500.81;4976021;28;46564;-80
2021/03/26 11:32:57;;;;;;;4.80;2.50;;;;;;;18.33;33.47;98494.63;4973888;28;45572;-80
2021/03/26 11:35:26;;;;;;;4.45;2.50;;;;;;;18.55;34.04;98501.72;4977729;28;45496;-83
2021/03/26 11:38:01;;;;;;;3.33;2.45;;;;;;;18.53;33.80;98486.59;4978682;28;45469;-85
2021/03/26 11:40:46;;;;;;;4.85;2.30;;;;;;;18.56;34.13;98480.00;4976018;28;45959;-81
2021/03/26 11:43:48;;;;;;;5.50;2.17;;;;;;;18.32;32.85;98482.19;4978469;28;45604;-80
2021/03/26 11:46:18;;;;;;;4.32;2.08;;;;;;;18.31;31.84;98479.69;4975566;28;45489;-78
2021/03/26 11:48:59;;;;;;;4.88;2.30;;;;;;;18.25;33.17;98472.41;4972124;28;45490;-78
2021/03/26 11:51:47;;;;;;;3.90;2.05;;;;;;;18.09;34.94;98472.53;4977230;28;45518;-77
2021/03/26 11:54:26;;;;;;;4.65;2.20;;;;;;;18.13;32.16;98467.63;4994632;28;45676;-82
2021/03/26 11:56:56;;;;;;;5.70;2.47;;;;;;;18.34;33.53;98458.59;4979821;28;45577;-83
2021/03/26 12:00:00;;;;;;;4.32;2.20;;;;;;;18.50;32.19;98453.88;4974970;28;45674;-84
2021/03/26 12:02:25;;;;;;;4.75;2.08;;;;;;;18.27;32.05;98456.91;4977139;28;46306;-83
2021/03/26 12:05:01;;;;;;;4.85;2.25;;;;;;;18.41;36.63;98450.53;4978960;28;45473;-86
2021/03/26 12:07:46;;;;;;;4.35;2.55;;;;;;;18.42;34.90;98452.19;4990776;28;45294;-82
2021/03/26 12:10:31;;;;;;;4.70;2.20;;;;;;;18.40;35.89;98456.94;4979395;28;45462;-82
2021/03/26 12:13:05;;;;;;;4.93;2.30;;;;;;;18.26;36.52;98452.56;4979696;28;45470;-80
2021/03/26 12:15:36;;;;;;;3.63;2.33;;;;;;;18.34;35.22;98450.53;4980144;28;45261;-80
2021/03/26 12:18:05;;;;;;;4.20;2.42;;;;;;;18.25;34.45;98438.28;4980539;28;45458;-81
2021/03/26 12:20:36;;;;;;;4.47;2.25;;;;;;;18.12;35.38;98439.03;4980099;28;45302;-80
2021/03/26 12:23:08;;;;;;;5.57;2.30;;;;;;;18.12;35.35;98432.84;4980279;28;45916;-79
2021/03/26 12:25:42;;;;;;;5.13;2.47;;;;;;;18.39;35.59;98436.44;4979825;28;45457;-81
2021/03/26 12:28:20;;;;;;;3.65;2.47;;;;;;;18.43;33.95;98435.00;4980473;28;45356;-81
2021/03/26 12:31:18;;;;;;;4.13;2.50;;;;;;;18.64;33.46;98430.53;4979671;28;45470;-81
2021/03/26 12:34:14;;;;;;;6.47;2.83;;;;;;;18.46;35.37;98423.00;4982506;28;45497;-81